Αναφορές Αεροδρομίων

 

KSJC - San Jose, California, USA
Distance from station: ΒΑ 14km
Ενημερώθηκε: 17/01/2022 05:53
Σχεδόν νεφελώδης
Σχεδόν νεφελώδης
 Ανεμος από calm
Ανεμος: Απνοια
Θερμοκρασία: 14°C
Σημείο Δρόσου: 6°C
Υγρασία: 59%
Βαρόμετρο: 1017.6 hPa
Clouds: Σχεδόν νεφελώδης
Visibility: 14 km
Cloud details: Σχεδόν νεφελώδης 3658 m
2022/01/17 03:53 KSJC 170353Z 00000KT 9SM BKN120 14/06 A3005 RMK AO2 SLP176 T01390061
KNUQ - Moffett Nas/Mtn, California, USA
Distance from station: Β 14km
Ενημερώθηκε: 17/01/2022 06:35
Συννεφιά
Συννεφιά
 Ανεμος από calm
Ανεμος: Απνοια
Θερμοκρασία: 13°C
Σημείο Δρόσου: 8°C
Υγρασία: 72%
Βαρόμετρο: 1017.9 hPa
Clouds: Συννεφιά
Visibility: 16 km
Cloud details: Συννεφιά 2438 m
2022/01/17 04:35 KNUQ 170435Z AUTO 00000KT 10SM OVC080 13/08 A3006 RMK AO2
 
KPAO - Palo Alto, California, USA
Distance from station: ΒΒΔ 23km
Ενημερώθηκε: 17/01/2022 05:47
Σχεδόν νεφελώδης
Σχεδόν νεφελώδης
 Ανεμος από calm
Ανεμος: Απνοια
Θερμοκρασία: 11°C
Σημείο Δρόσου: 7°C
Υγρασία: 77%
Βαρόμετρο: 1017.9 hPa
Clouds: Σχεδόν νεφελώδης
Visibility: 16 km
Cloud details: Σχεδόν νεφελώδης 3353 m
2022/01/17 03:47 KPAO 170347Z 00000KT 10SM BKN110 11/07 A3006
KRHV - San Jose/Reid, California, USA
Distance from station: ΑΒΑ 19km
Ενημερώθηκε: 17/01/2022 05:55
Σχεδόν νεφελώδης
Σχεδόν νεφελώδης
 Ανεμος από calm
Ανεμος: Απνοια
Θερμοκρασία: 13°C
Σημείο Δρόσου: 8°C
Υγρασία: 72%
Βαρόμετρο: 1017.9 hPa
Clouds: Σχεδόν νεφελώδης
Visibility: 16 km
Cloud details: Σχεδόν νεφελώδης 3048 m
2022/01/17 03:55 KRHV 170355Z 00000KT 10SM BKN100 13/08 A3006
 
KOAK - Oakland, California, USA
Distance from station: ΒΒΔ 50km
Ενημερώθηκε: 17/01/2022 05:53
Μερικώς νεφελώδης
Μερικώς νεφελώδης
 Ανεμος από calm
Ανεμος: Απνοια
Θερμοκρασία: 12°C
Σημείο Δρόσου: 9°C
Υγρασία: 82%
Βαρόμετρο: 1018.3 hPa
Clouds: Μερικώς νεφελώδης
Visibility: 16 km
Cloud details: Μερικώς νεφελώδης 3658 m
2022/01/17 03:53 KOAK 170353Z 00000KT 10SM SCT120 12/09 A3007 RMK AO2 SLP181 T01170089 $
KSQL - San Carlos Airpo, California, USA
Distance from station: ΒΔ 34km
Ενημερώθηκε: 17/01/2022 06:47
Σχεδόν νεφελώδης
Σχεδόν νεφελώδης
 Ανεμος από calm
Ανεμος: Απνοια
Θερμοκρασία: 12°C
Σημείο Δρόσου: 7°C
Υγρασία: 72%
Βαρόμετρο: 1018.6 hPa
Clouds: Σχεδόν νεφελώδης
Visibility: 16 km
Cloud details: Σχεδόν νεφελώδης 3658 m
2022/01/17 04:47 KSQL 170447Z 00000KT 10SM BKN120 12/07 A3008 RMK LAST
 
KSFO - San Francisco, California, USA
Distance from station: ΒΔ 49km
Ενημερώθηκε: 17/01/2022 05:56
Σχεδόν νεφελώδης
Σχεδόν νεφελώδης
 Ανεμος από calm
Ανεμος: Απνοια
Θερμοκρασία: 12°C
Σημείο Δρόσου: 8°C
Υγρασία: 77%
Βαρόμετρο: 1017.9 hPa
Clouds: Σχεδόν νεφελώδης
Visibility: 16 km
Cloud details: Few Clouds 2591 m
Σχεδόν νεφελώδης 3353 m
2022/01/17 03:56 KSFO 170356Z 00000KT 10SM FEW085 BKN110 12/08 A3006 RMK AO2 SLP178 T01220083
KE16 - San Martin, California, USA
Distance from station: ΑΝΑ 43km
Ενημερώθηκε: 17/01/2022 06:30
Συννεφιά
Συννεφιά
 Ανεμος από calm
Ανεμος: Απνοια
Θερμοκρασία: 13°C
Σημείο Δρόσου: 8°C
Υγρασία: 72%
Βαρόμετρο: 1018.6 hPa
Clouds: Συννεφιά
Visibility: 16 km
Cloud details: Few Clouds 1341 m
Μερικώς νεφελώδης 1981 m
Συννεφιά 3048 m
2022/01/17 04:30 KE16 170430Z AUTO 00000KT 10SM FEW044 SCT065 OVC100 13/08 A3008 RMK
 
KWVI - Watsonville, California, USA
Distance from station: ΝΝΑ 44km
Ενημερώθηκε: 17/01/2022 05:53
Συννεφιά
Συννεφιά
 Ανεμος από ΝΝΑ
Ανεμος: ΝΝΑ 6 km/h
Θερμοκρασία: 12°C
Σημείο Δρόσου: 8°C
Υγρασία: 77%
Βαρόμετρο: 1017.9 hPa
Clouds: Συννεφιά
Visibility: 16 km
Cloud details: Μερικώς νεφελώδης 2134 m
Μερικώς νεφελώδης 2896 m
Συννεφιά 3353 m
2022/01/17 03:53 KWVI 170353Z AUTO 16003KT 10SM SCT070 SCT095 OVC110 12/08 A3006 RMK AO2 SLP180 T01220083
KHAF - Half Moon Bay, California, USA
Distance from station: ΔΒΔ 50km
Ενημερώθηκε: 17/01/2022 06:35
Συννεφιά
Συννεφιά
 Ανεμος από calm
Ανεμος: Απνοια
Θερμοκρασία: 11°C
Σημείο Δρόσου: 7°C
Υγρασία: 77%
Βαρόμετρο: 1017.6 hPa
Clouds: Συννεφιά
Visibility: 14 km
Cloud details: Μερικώς νεφελώδης 2438 m
Συννεφιά 3658 m
2022/01/17 04:35 KHAF 170435Z AUTO 00000KT 9SM SCT080 OVC120 11/07 A3005 RMK AO2
 
KHWD - Hayward, California, USA
Distance from station: Β 44km
Ενημερώθηκε: 17/01/2022 05:54
Haze, Few clouds
Haze, Few clouds
 Ανεμος από ΒΑ
Ανεμος: ΒΑ 11 km/h
Θερμοκρασία: 13°C
Σημείο Δρόσου: 8°C
Υγρασία: 72%
Βαρόμετρο: 1017.9 hPa
Περίληψη: Haze
Clouds: Few Clouds
Visibility: 8 km
Cloud details: Few Clouds 3353 m
2022/01/17 03:54 KHWD 170354Z 04006KT 5SM HZ FEW110 13/08 A3006 RMK AO2 SLP187 T01280078
KLVK - Livermore, California, USA
Distance from station: ΒΒΑ 51km
Ενημερώθηκε: 17/01/2022 05:53
Smoke, Few clouds
Smoke, Few clouds
 Ανεμος από Α
Ανεμος: Α 9 km/h
Θερμοκρασία: 9°C
Wind Chill: 7°C
Σημείο Δρόσου: 7°C
Υγρασία: 87%
Βαρόμετρο: 1018.3 hPa
Περίληψη: Smoke
Clouds: Few Clouds
Visibility: 10 km
Cloud details: Few Clouds 3353 m
2022/01/17 03:53 KLVK 170353Z 08005KT 6SM FU FEW110 09/07 A3007 RMK AO2 SLP180 T00940072